sensor_id;sensor_type;location;lat;lon;timestamp;P1;durP1;ratioP1;P2;durP2;ratioP2
39958;SDS011;25639;53.634;9.880;2024-02-28T00:01:05;59.47;;;30.65;;
39958;SDS011;25639;53.634;9.880;2024-02-28T00:03:30;60.17;;;29.75;;
39958;SDS011;25639;53.634;9.880;2024-02-28T00:05:57;63.25;;;32.33;;
39958;SDS011;25639;53.634;9.880;2024-02-28T00:08:22;62.30;;;30.77;;
39958;SDS011;25639;53.634;9.880;2024-02-28T00:10:47;60.85;;;29.73;;
39958;SDS011;25639;53.634;9.880;2024-02-28T00:13:14;59.40;;;29.00;;
39958;SDS011;25639;53.634;9.880;2024-02-28T00:15:40;58.80;;;28.65;;
39958;SDS011;25639;53.634;9.880;2024-02-28T00:18:05;57.78;;;29.02;;
39958;SDS011;25639;53.634;9.880;2024-02-28T00:20:31;60.90;;;30.05;;
39958;SDS011;25639;53.634;9.880;2024-02-28T00:22:56;61.58;;;30.50;;
39958;SDS011;25639;53.634;9.880;2024-02-28T00:25:21;59.20;;;29.33;;
39958;SDS011;25639;53.634;9.880;2024-02-28T00:27:47;59.00;;;28.60;;
39958;SDS011;25639;53.634;9.880;2024-02-28T00:30:12;53.05;;;27.80;;
39958;SDS011;25639;53.634;9.880;2024-02-28T00:32:38;58.28;;;28.92;;
39958;SDS011;25639;53.634;9.880;2024-02-28T00:35:04;59.85;;;30.30;;
39958;SDS011;25639;53.634;9.880;2024-02-28T00:37:29;58.60;;;30.15;;
39958;SDS011;25639;53.634;9.880;2024-02-28T00:39:55;54.88;;;28.80;;
39958;SDS011;25639;53.634;9.880;2024-02-28T00:42:21;54.55;;;27.70;;
39958;SDS011;25639;53.634;9.880;2024-02-28T00:44:46;50.75;;;26.20;;
39958;SDS011;25639;53.634;9.880;2024-02-28T00:47:11;59.15;;;29.38;;
39958;SDS011;25639;53.634;9.880;2024-02-28T00:49:37;53.28;;;28.27;;
39958;SDS011;25639;53.634;9.880;2024-02-28T00:52:02;56.47;;;28.98;;
39958;SDS011;25639;53.634;9.880;2024-02-28T00:54:28;62.60;;;29.02;;
39958;SDS011;25639;53.634;9.880;2024-02-28T00:56:53;60.72;;;28.65;;
39958;SDS011;25639;53.634;9.880;2024-02-28T00:59:18;59.38;;;28.23;;
39958;SDS011;25639;53.634;9.880;2024-02-28T01:01:43;57.95;;;28.05;;
39958;SDS011;25639;53.634;9.880;2024-02-28T01:04:09;54.65;;;27.67;;
39958;SDS011;25639;53.634;9.880;2024-02-28T01:06:34;56.17;;;29.00;;
39958;SDS011;25639;53.634;9.880;2024-02-28T01:08:59;60.22;;;28.52;;
39958;SDS011;25639;53.634;9.880;2024-02-28T01:11:25;56.70;;;28.27;;
39958;SDS011;25639;53.634;9.880;2024-02-28T01:13:53;56.92;;;28.65;;
39958;SDS011;25639;53.634;9.880;2024-02-28T01:16:18;57.15;;;26.77;;
39958;SDS011;25639;53.634;9.880;2024-02-28T01:18:44;57.75;;;27.77;;
39958;SDS011;25639;53.634;9.880;2024-02-28T01:21:09;56.58;;;26.98;;
39958;SDS011;25639;53.634;9.880;2024-02-28T01:23:34;62.30;;;29.35;;
39958;SDS011;25639;53.634;9.880;2024-02-28T01:26:00;56.53;;;26.50;;
39958;SDS011;25639;53.634;9.880;2024-02-28T01:28:28;58.15;;;27.13;;
39958;SDS011;25639;53.634;9.880;2024-02-28T01:30:53;59.05;;;27.27;;
39958;SDS011;25639;53.634;9.880;2024-02-28T01:33:18;54.95;;;26.05;;
39958;SDS011;25639;53.634;9.880;2024-02-28T01:35:43;53.63;;;25.77;;
39958;SDS011;25639;53.634;9.880;2024-02-28T01:38:09;55.17;;;25.73;;
39958;SDS011;25639;53.634;9.880;2024-02-28T01:40:34;53.35;;;24.98;;
39958;SDS011;25639;53.634;9.880;2024-02-28T01:43:09;52.22;;;25.17;;
39958;SDS011;25639;53.634;9.880;2024-02-28T01:45:34;52.72;;;26.17;;
39958;SDS011;25639;53.634;9.880;2024-02-28T01:48:00;55.72;;;27.35;;
39958;SDS011;25639;53.634;9.880;2024-02-28T01:50:26;53.25;;;24.88;;
39958;SDS011;25639;53.634;9.880;2024-02-28T01:52:51;51.85;;;24.83;;
39958;SDS011;25639;53.634;9.880;2024-02-28T01:55:17;57.40;;;26.67;;
39958;SDS011;25639;53.634;9.880;2024-02-28T01:57:42;50.30;;;24.98;;
39958;SDS011;25639;53.634;9.880;2024-02-28T02:00:07;53.40;;;25.27;;
39958;SDS011;25639;53.634;9.880;2024-02-28T02:02:33;49.92;;;24.77;;
39958;SDS011;25639;53.634;9.880;2024-02-28T02:04:59;50.00;;;23.92;;
39958;SDS011;25639;53.634;9.880;2024-02-28T02:07:24;54.78;;;24.63;;
39958;SDS011;25639;53.634;9.880;2024-02-28T02:09:51;55.08;;;25.67;;
39958;SDS011;25639;53.634;9.880;2024-02-28T02:12:17;51.35;;;24.20;;
39958;SDS011;25639;53.634;9.880;2024-02-28T02:14:46;51.30;;;23.85;;
39958;SDS011;25639;53.634;9.880;2024-02-28T02:17:13;50.85;;;24.63;;
39958;SDS011;25639;53.634;9.880;2024-02-28T02:19:38;51.63;;;24.52;;
39958;SDS011;25639;53.634;9.880;2024-02-28T02:22:04;52.50;;;25.13;;
39958;SDS011;25639;53.634;9.880;2024-02-28T02:24:30;51.72;;;24.48;;
39958;SDS011;25639;53.634;9.880;2024-02-28T02:26:59;51.00;;;24.08;;
39958;SDS011;25639;53.634;9.880;2024-02-28T02:29:24;51.17;;;24.77;;
39958;SDS011;25639;53.634;9.880;2024-02-28T02:31:50;48.90;;;23.88;;
39958;SDS011;25639;53.634;9.880;2024-02-28T02:34:15;46.85;;;22.40;;
39958;SDS011;25639;53.634;9.880;2024-02-28T02:36:40;47.95;;;22.75;;
39958;SDS011;25639;53.634;9.880;2024-02-28T02:39:05;48.00;;;22.92;;
39958;SDS011;25639;53.634;9.880;2024-02-28T02:41:33;46.42;;;22.40;;
39958;SDS011;25639;53.634;9.880;2024-02-28T02:43:58;47.50;;;21.52;;
39958;SDS011;25639;53.634;9.880;2024-02-28T02:46:24;46.10;;;22.20;;
39958;SDS011;25639;53.634;9.880;2024-02-28T02:48:49;47.72;;;22.63;;
39958;SDS011;25639;53.634;9.880;2024-02-28T02:51:14;43.88;;;21.50;;
39958;SDS011;25639;53.634;9.880;2024-02-28T02:53:40;47.25;;;22.38;;
39958;SDS011;25639;53.634;9.880;2024-02-28T02:56:05;45.75;;;22.30;;
39958;SDS011;25639;53.634;9.880;2024-02-28T02:58:31;46.45;;;22.30;;
39958;SDS011;25639;53.634;9.880;2024-02-28T03:00:56;44.97;;;21.83;;
39958;SDS011;25639;53.634;9.880;2024-02-28T03:03:21;43.70;;;20.00;;
39958;SDS011;25639;53.634;9.880;2024-02-28T03:05:47;45.75;;;21.92;;
39958;SDS011;25639;53.634;9.880;2024-02-28T03:08:12;45.47;;;21.67;;
39958;SDS011;25639;53.634;9.880;2024-02-28T03:10:37;47.03;;;22.08;;
39958;SDS011;25639;53.634;9.880;2024-02-28T03:13:02;47.60;;;22.05;;
39958;SDS011;25639;53.634;9.880;2024-02-28T03:15:28;48.28;;;22.60;;
39958;SDS011;25639;53.634;9.880;2024-02-28T03:17:53;43.47;;;21.00;;
39958;SDS011;25639;53.634;9.880;2024-02-28T03:20:18;45.70;;;20.75;;
39958;SDS011;25639;53.634;9.880;2024-02-28T03:22:44;43.15;;;20.85;;
39958;SDS011;25639;53.634;9.880;2024-02-28T03:25:09;47.67;;;22.17;;
39958;SDS011;25639;53.634;9.880;2024-02-28T03:27:35;47.42;;;22.27;;
39958;SDS011;25639;53.634;9.880;2024-02-28T03:30:01;49.83;;;22.65;;
39958;SDS011;25639;53.634;9.880;2024-02-28T03:32:26;51.28;;;23.08;;
39958;SDS011;25639;53.634;9.880;2024-02-28T03:34:52;51.47;;;22.30;;
39958;SDS011;25639;53.634;9.880;2024-02-28T03:37:17;46.78;;;21.45;;
39958;SDS011;25639;53.634;9.880;2024-02-28T03:39:42;50.85;;;22.83;;
39958;SDS011;25639;53.634;9.880;2024-02-28T03:42:08;50.25;;;22.73;;
39958;SDS011;25639;53.634;9.880;2024-02-28T03:44:33;52.10;;;23.27;;
39958;SDS011;25639;53.634;9.880;2024-02-28T03:46:58;50.78;;;22.92;;
39958;SDS011;25639;53.634;9.880;2024-02-28T03:49:23;50.95;;;21.67;;
39958;SDS011;25639;53.634;9.880;2024-02-28T03:51:49;46.85;;;21.73;;
39958;SDS011;25639;53.634;9.880;2024-02-28T03:54:14;54.67;;;23.20;;
39958;SDS011;25639;53.634;9.880;2024-02-28T03:56:39;48.80;;;21.85;;
39958;SDS011;25639;53.634;9.880;2024-02-28T03:59:05;48.92;;;21.77;;
39958;SDS011;25639;53.634;9.880;2024-02-28T04:01:30;47.42;;;20.95;;
39958;SDS011;25639;53.634;9.880;2024-02-28T04:03:55;49.50;;;21.77;;
39958;SDS011;25639;53.634;9.880;2024-02-28T04:06:21;47.08;;;20.77;;
39958;SDS011;25639;53.634;9.880;2024-02-28T04:08:46;47.45;;;21.40;;
39958;SDS011;25639;53.634;9.880;2024-02-28T04:11:12;47.35;;;21.48;;
39958;SDS011;25639;53.634;9.880;2024-02-28T04:13:37;48.75;;;21.30;;
39958;SDS011;25639;53.634;9.880;2024-02-28T04:16:02;47.78;;;20.10;;
39958;SDS011;25639;53.634;9.880;2024-02-28T04:18:28;47.38;;;21.35;;
39958;SDS011;25639;53.634;9.880;2024-02-28T04:20:54;51.35;;;20.98;;
39958;SDS011;25639;53.634;9.880;2024-02-28T04:23:20;47.78;;;21.17;;
39958;SDS011;25639;53.634;9.880;2024-02-28T04:25:45;48.35;;;21.30;;
39958;SDS011;25639;53.634;9.880;2024-02-28T04:28:10;46.78;;;20.55;;
39958;SDS011;25639;53.634;9.880;2024-02-28T04:30:35;46.00;;;20.33;;
39958;SDS011;25639;53.634;9.880;2024-02-28T04:33:01;41.13;;;19.90;;
39958;SDS011;25639;53.634;9.880;2024-02-28T04:35:26;42.60;;;19.17;;
39958;SDS011;25639;53.634;9.880;2024-02-28T04:37:51;46.13;;;20.75;;
39958;SDS011;25639;53.634;9.880;2024-02-28T04:40:16;44.25;;;20.30;;
39958;SDS011;25639;53.634;9.880;2024-02-28T04:42:42;46.25;;;20.92;;
39958;SDS011;25639;53.634;9.880;2024-02-28T04:45:10;42.72;;;19.25;;
39958;SDS011;25639;53.634;9.880;2024-02-28T04:47:36;46.88;;;20.17;;
39958;SDS011;25639;53.634;9.880;2024-02-28T04:50:02;52.92;;;22.23;;
39958;SDS011;25639;53.634;9.880;2024-02-28T04:52:29;47.85;;;21.38;;
39958;SDS011;25639;53.634;9.880;2024-02-28T04:54:55;46.30;;;20.08;;
39958;SDS011;25639;53.634;9.880;2024-02-28T04:57:21;48.90;;;21.40;;
39958;SDS011;25639;53.634;9.880;2024-02-28T04:59:46;48.45;;;20.13;;
39958;SDS011;25639;53.634;9.880;2024-02-28T05:02:11;46.97;;;20.73;;
39958;SDS011;25639;53.634;9.880;2024-02-28T05:04:37;46.65;;;21.13;;
39958;SDS011;25639;53.634;9.880;2024-02-28T05:07:02;47.08;;;21.80;;
39958;SDS011;25639;53.634;9.880;2024-02-28T05:09:28;51.70;;;22.23;;
39958;SDS011;25639;53.634;9.880;2024-02-28T05:11:53;46.25;;;21.77;;
39958;SDS011;25639;53.634;9.880;2024-02-28T05:14:19;53.45;;;22.65;;
39958;SDS011;25639;53.634;9.880;2024-02-28T05:16:44;52.88;;;24.10;;
39958;SDS011;25639;53.634;9.880;2024-02-28T05:19:09;51.83;;;22.50;;
39958;SDS011;25639;53.634;9.880;2024-02-28T05:21:41;53.03;;;23.25;;
39958;SDS011;25639;53.634;9.880;2024-02-28T05:24:07;55.63;;;23.35;;
39958;SDS011;25639;53.634;9.880;2024-02-28T05:26:34;56.70;;;23.40;;
39958;SDS011;25639;53.634;9.880;2024-02-28T05:29:00;52.80;;;23.10;;
39958;SDS011;25639;53.634;9.880;2024-02-28T05:31:26;61.13;;;23.25;;
39958;SDS011;25639;53.634;9.880;2024-02-28T05:33:52;53.50;;;24.10;;
39958;SDS011;25639;53.634;9.880;2024-02-28T05:36:19;55.13;;;23.67;;
39958;SDS011;25639;53.634;9.880;2024-02-28T05:38:45;52.80;;;23.95;;
39958;SDS011;25639;53.634;9.880;2024-02-28T05:41:11;53.35;;;23.45;;
39958;SDS011;25639;53.634;9.880;2024-02-28T05:43:37;52.97;;;23.02;;
39958;SDS011;25639;53.634;9.880;2024-02-28T05:46:03;55.53;;;23.42;;
39958;SDS011;25639;53.634;9.880;2024-02-28T05:48:28;54.20;;;24.25;;
39958;SDS011;25639;53.634;9.880;2024-02-28T05:50:54;55.92;;;24.20;;
39958;SDS011;25639;53.634;9.880;2024-02-28T05:53:19;57.88;;;24.25;;
39958;SDS011;25639;53.634;9.880;2024-02-28T05:55:45;57.22;;;24.83;;
39958;SDS011;25639;53.634;9.880;2024-02-28T05:58:10;56.03;;;24.92;;
39958;SDS011;25639;53.634;9.880;2024-02-28T06:00:35;57.72;;;24.90;;
39958;SDS011;25639;53.634;9.880;2024-02-28T06:03:00;60.38;;;25.05;;
39958;SDS011;25639;53.634;9.880;2024-02-28T06:05:26;55.42;;;25.27;;
39958;SDS011;25639;53.634;9.880;2024-02-28T06:07:51;58.67;;;25.38;;
39958;SDS011;25639;53.634;9.880;2024-02-28T06:10:16;57.25;;;25.52;;
39958;SDS011;25639;53.634;9.880;2024-02-28T06:12:42;56.88;;;24.77;;
39958;SDS011;25639;53.634;9.880;2024-02-28T06:15:07;55.13;;;24.58;;
39958;SDS011;25639;53.634;9.880;2024-02-28T06:17:32;54.75;;;24.58;;
39958;SDS011;25639;53.634;9.880;2024-02-28T06:19:58;59.20;;;25.38;;
39958;SDS011;25639;53.634;9.880;2024-02-28T06:22:23;56.65;;;24.10;;
39958;SDS011;25639;53.634;9.880;2024-02-28T06:24:48;52.00;;;23.58;;
39958;SDS011;25639;53.634;9.880;2024-02-28T06:27:13;57.20;;;25.25;;
39958;SDS011;25639;53.634;9.880;2024-02-28T06:29:40;55.90;;;24.13;;
39958;SDS011;25639;53.634;9.880;2024-02-28T06:32:05;55.50;;;24.33;;
39958;SDS011;25639;53.634;9.880;2024-02-28T06:34:31;53.75;;;23.95;;
39958;SDS011;25639;53.634;9.880;2024-02-28T06:36:57;54.50;;;24.77;;
39958;SDS011;25639;53.634;9.880;2024-02-28T06:39:22;55.13;;;23.40;;
39958;SDS011;25639;53.634;9.880;2024-02-28T06:41:47;55.50;;;24.98;;
39958;SDS011;25639;53.634;9.880;2024-02-28T06:44:15;51.78;;;23.38;;
39958;SDS011;25639;53.634;9.880;2024-02-28T06:46:41;56.58;;;23.83;;
39958;SDS011;25639;53.634;9.880;2024-02-28T06:49:06;52.63;;;23.40;;
39958;SDS011;25639;53.634;9.880;2024-02-28T06:51:32;51.80;;;23.80;;
39958;SDS011;25639;53.634;9.880;2024-02-28T06:53:57;47.33;;;22.45;;
39958;SDS011;25639;53.634;9.880;2024-02-28T06:56:22;51.42;;;23.70;;
39958;SDS011;25639;53.634;9.880;2024-02-28T06:58:47;49.20;;;22.73;;
39958;SDS011;25639;53.634;9.880;2024-02-28T07:01:13;50.78;;;22.75;;
39958;SDS011;25639;53.634;9.880;2024-02-28T07:03:38;49.28;;;22.70;;
39958;SDS011;25639;53.634;9.880;2024-02-28T07:06:03;51.65;;;24.00;;
39958;SDS011;25639;53.634;9.880;2024-02-28T07:08:29;50.05;;;22.15;;
39958;SDS011;25639;53.634;9.880;2024-02-28T07:10:54;42.58;;;21.60;;
39958;SDS011;25639;53.634;9.880;2024-02-28T07:13:20;44.05;;;20.90;;
39958;SDS011;25639;53.634;9.880;2024-02-28T07:15:46;48.03;;;21.23;;
39958;SDS011;25639;53.634;9.880;2024-02-28T07:18:12;42.33;;;20.77;;
39958;SDS011;25639;53.634;9.880;2024-02-28T07:20:37;42.92;;;20.17;;
39958;SDS011;25639;53.634;9.880;2024-02-28T07:23:03;43.40;;;20.88;;
39958;SDS011;25639;53.634;9.880;2024-02-28T07:25:28;47.22;;;20.95;;
39958;SDS011;25639;53.634;9.880;2024-02-28T07:27:56;40.60;;;20.33;;
39958;SDS011;25639;53.634;9.880;2024-02-28T07:30:22;43.53;;;20.75;;
39958;SDS011;25639;53.634;9.880;2024-02-28T07:32:47;42.83;;;21.17;;
39958;SDS011;25639;53.634;9.880;2024-02-28T07:35:13;44.22;;;21.17;;
39958;SDS011;25639;53.634;9.880;2024-02-28T07:37:39;42.88;;;21.20;;
39958;SDS011;25639;53.634;9.880;2024-02-28T07:40:04;42.13;;;21.13;;
39958;SDS011;25639;53.634;9.880;2024-02-28T07:42:30;43.63;;;20.88;;
39958;SDS011;25639;53.634;9.880;2024-02-28T07:44:55;41.47;;;20.05;;
39958;SDS011;25639;53.634;9.880;2024-02-28T07:47:22;42.47;;;20.50;;
39958;SDS011;25639;53.634;9.880;2024-02-28T07:49:48;41.97;;;20.30;;
39958;SDS011;25639;53.634;9.880;2024-02-28T07:52:13;49.47;;;22.65;;
39958;SDS011;25639;53.634;9.880;2024-02-28T07:54:41;46.15;;;20.25;;
39958;SDS011;25639;53.634;9.880;2024-02-28T07:57:08;45.70;;;22.05;;
39958;SDS011;25639;53.634;9.880;2024-02-28T07:59:38;48.17;;;22.40;;
39958;SDS011;25639;53.634;9.880;2024-02-28T08:02:04;45.00;;;21.92;;
39958;SDS011;25639;53.634;9.880;2024-02-28T08:04:30;50.45;;;22.42;;
39958;SDS011;25639;53.634;9.880;2024-02-28T08:06:56;47.03;;;22.33;;
39958;SDS011;25639;53.634;9.880;2024-02-28T08:09:21;46.50;;;23.27;;
39958;SDS011;25639;53.634;9.880;2024-02-28T08:11:47;48.50;;;23.25;;
39958;SDS011;25639;53.634;9.880;2024-02-28T08:14:12;47.50;;;22.48;;
39958;SDS011;25639;53.634;9.880;2024-02-28T08:16:38;51.08;;;22.83;;
39958;SDS011;25639;53.634;9.880;2024-02-28T08:19:03;48.38;;;22.80;;
39958;SDS011;25639;53.634;9.880;2024-02-28T08:21:28;55.03;;;25.35;;
39958;SDS011;25639;53.634;9.880;2024-02-28T08:23:54;49.65;;;24.02;;
39958;SDS011;25639;53.634;9.880;2024-02-28T08:26:19;51.33;;;24.23;;
39958;SDS011;25639;53.634;9.880;2024-02-28T08:28:44;52.40;;;24.42;;
39958;SDS011;25639;53.634;9.880;2024-02-28T08:31:10;49.15;;;23.48;;
39958;SDS011;25639;53.634;9.880;2024-02-28T08:33:35;53.08;;;24.52;;
39958;SDS011;25639;53.634;9.880;2024-02-28T08:36:00;46.42;;;23.00;;
39958;SDS011;25639;53.634;9.880;2024-02-28T08:38:26;51.22;;;24.92;;
39958;SDS011;25639;53.634;9.880;2024-02-28T08:40:51;49.00;;;24.15;;
39958;SDS011;25639;53.634;9.880;2024-02-28T08:43:16;51.15;;;24.67;;
39958;SDS011;25639;53.634;9.880;2024-02-28T08:45:41;50.17;;;24.48;;
39958;SDS011;25639;53.634;9.880;2024-02-28T08:48:07;53.40;;;24.55;;
39958;SDS011;25639;53.634;9.880;2024-02-28T08:50:32;44.42;;;23.30;;
39958;SDS011;25639;53.634;9.880;2024-02-28T08:52:57;49.90;;;24.40;;
39958;SDS011;25639;53.634;9.880;2024-02-28T08:55:23;51.90;;;24.70;;
39958;SDS011;25639;53.634;9.880;2024-02-28T08:57:48;51.47;;;23.63;;
39958;SDS011;25639;53.634;9.880;2024-02-28T09:00:14;52.78;;;25.80;;
39958;SDS011;25639;53.634;9.880;2024-02-28T09:02:40;53.25;;;26.02;;
39958;SDS011;25639;53.634;9.880;2024-02-28T09:05:06;49.50;;;24.70;;
39958;SDS011;25639;53.634;9.880;2024-02-28T09:07:31;51.53;;;25.13;;
39958;SDS011;25639;53.634;9.880;2024-02-28T09:09:57;46.75;;;24.08;;
39958;SDS011;25639;53.634;9.880;2024-02-28T09:12:22;49.08;;;24.58;;
39958;SDS011;25639;53.634;9.880;2024-02-28T09:14:47;52.08;;;24.77;;
39958;SDS011;25639;53.634;9.880;2024-02-28T09:17:19;50.90;;;24.77;;
39958;SDS011;25639;53.634;9.880;2024-02-28T09:19:44;52.45;;;25.27;;
39958;SDS011;25639;53.634;9.880;2024-02-28T09:22:10;53.08;;;25.95;;
39958;SDS011;25639;53.634;9.880;2024-02-28T09:24:36;53.38;;;26.38;;
39958;SDS011;25639;53.634;9.880;2024-02-28T09:27:02;51.10;;;26.05;;
39958;SDS011;25639;53.634;9.880;2024-02-28T09:29:28;55.25;;;26.45;;
39958;SDS011;25639;53.634;9.880;2024-02-28T09:31:53;53.83;;;25.58;;
39958;SDS011;25639;53.634;9.880;2024-02-28T09:34:19;48.63;;;23.65;;
39958;SDS011;25639;53.634;9.880;2024-02-28T09:36:44;51.05;;;24.70;;
39958;SDS011;25639;53.634;9.880;2024-02-28T09:39:13;47.10;;;23.65;;
39958;SDS011;25639;53.634;9.880;2024-02-28T09:41:40;48.90;;;24.15;;
39958;SDS011;25639;53.634;9.880;2024-02-28T09:44:06;50.92;;;25.20;;
39958;SDS011;25639;53.634;9.880;2024-02-28T09:46:32;47.08;;;22.38;;
39958;SDS011;25639;53.634;9.880;2024-02-28T09:48:59;49.60;;;24.27;;
39958;SDS011;25639;53.634;9.880;2024-02-28T09:51:33;50.03;;;23.73;;
39958;SDS011;25639;53.634;9.880;2024-02-28T09:54:03;46.72;;;23.10;;
39958;SDS011;25639;53.634;9.880;2024-02-28T09:56:29;44.92;;;22.70;;
39958;SDS011;25639;53.634;9.880;2024-02-28T09:58:55;48.60;;;23.35;;
39958;SDS011;25639;53.634;9.880;2024-02-28T10:01:25;43.47;;;22.25;;
39958;SDS011;25639;53.634;9.880;2024-02-28T10:03:52;44.20;;;22.65;;
39958;SDS011;25639;53.634;9.880;2024-02-28T10:06:19;45.88;;;21.98;;
39958;SDS011;25639;53.634;9.880;2024-02-28T10:08:45;45.05;;;22.13;;
39958;SDS011;25639;53.634;9.880;2024-02-28T10:11:16;44.90;;;21.83;;
39958;SDS011;25639;53.634;9.880;2024-02-28T10:13:43;42.85;;;22.15;;
39958;SDS011;25639;53.634;9.880;2024-02-28T10:16:08;43.65;;;22.35;;
39958;SDS011;25639;53.634;9.880;2024-02-28T10:18:33;46.50;;;22.92;;
39958;SDS011;25639;53.634;9.880;2024-02-28T10:20:59;41.80;;;21.65;;
39958;SDS011;25639;53.634;9.880;2024-02-28T10:23:24;40.30;;;20.80;;
39958;SDS011;25639;53.634;9.880;2024-02-28T10:25:52;44.00;;;20.50;;
39958;SDS011;25639;53.634;9.880;2024-02-28T10:28:17;41.90;;;20.23;;
39958;SDS011;25639;53.634;9.880;2024-02-28T10:30:43;38.30;;;19.88;;
39958;SDS011;25639;53.634;9.880;2024-02-28T10:33:12;43.38;;;19.70;;
39958;SDS011;25639;53.634;9.880;2024-02-28T10:35:39;35.35;;;19.27;;
39958;SDS011;25639;53.634;9.880;2024-02-28T10:38:11;41.58;;;21.35;;
39958;SDS011;25639;53.634;9.880;2024-02-28T10:40:39;39.58;;;20.77;;
39958;SDS011;25639;53.634;9.880;2024-02-28T10:43:05;42.42;;;21.98;;
39958;SDS011;25639;53.634;9.880;2024-02-28T10:45:33;46.53;;;22.83;;
39958;SDS011;25639;53.634;9.880;2024-02-28T10:48:01;42.90;;;21.33;;
39958;SDS011;25639;53.634;9.880;2024-02-28T10:50:28;42.78;;;21.27;;
39958;SDS011;25639;53.634;9.880;2024-02-28T10:52:53;40.95;;;20.20;;
39958;SDS011;25639;53.634;9.880;2024-02-28T10:55:22;40.53;;;21.30;;
39958;SDS011;25639;53.634;9.880;2024-02-28T10:57:54;43.97;;;21.52;;
39958;SDS011;25639;53.634;9.880;2024-02-28T11:00:33;38.97;;;20.60;;
39958;SDS011;25639;53.634;9.880;2024-02-28T11:03:00;36.28;;;18.63;;
39958;SDS011;25639;53.634;9.880;2024-02-28T11:05:37;41.47;;;21.25;;
39958;SDS011;25639;53.634;9.880;2024-02-28T11:08:05;39.15;;;19.10;;
39958;SDS011;25639;53.634;9.880;2024-02-28T11:10:34;41.60;;;20.60;;
39958;SDS011;25639;53.634;9.880;2024-02-28T11:13:00;39.83;;;20.58;;
39958;SDS011;25639;53.634;9.880;2024-02-28T11:15:25;41.90;;;21.15;;
39958;SDS011;25639;53.634;9.880;2024-02-28T11:17:52;42.92;;;21.30;;
39958;SDS011;25639;53.634;9.880;2024-02-28T11:20:18;40.10;;;20.70;;
39958;SDS011;25639;53.634;9.880;2024-02-28T11:22:43;36.25;;;18.98;;
39958;SDS011;25639;53.634;9.880;2024-02-28T11:25:08;36.83;;;19.75;;
39958;SDS011;25639;53.634;9.880;2024-02-28T11:27:34;39.58;;;19.58;;
39958;SDS011;25639;53.634;9.880;2024-02-28T11:30:10;43.20;;;20.88;;
39958;SDS011;25639;53.634;9.880;2024-02-28T11:32:36;42.67;;;20.23;;
39958;SDS011;25639;53.634;9.880;2024-02-28T11:35:02;44.72;;;20.20;;
39958;SDS011;25639;53.634;9.880;2024-02-28T11:37:28;38.08;;;19.95;;
39958;SDS011;25639;53.634;9.880;2024-02-28T11:39:54;40.58;;;20.30;;
39958;SDS011;25639;53.634;9.880;2024-02-28T11:42:19;38.78;;;19.38;;
39958;SDS011;25639;53.634;9.880;2024-02-28T11:44:52;38.40;;;19.63;;
39958;SDS011;25639;53.634;9.880;2024-02-28T11:47:19;45.88;;;20.65;;
39958;SDS011;25639;53.634;9.880;2024-02-28T11:49:45;40.25;;;19.95;;
39958;SDS011;25639;53.634;9.880;2024-02-28T11:52:10;44.38;;;21.55;;
39958;SDS011;25639;53.634;9.880;2024-02-28T11:54:36;43.35;;;21.35;;
39958;SDS011;25639;53.634;9.880;2024-02-28T11:57:02;46.63;;;20.63;;
39958;SDS011;25639;53.634;9.880;2024-02-28T11:59:28;41.28;;;20.40;;
39958;SDS011;25639;53.634;9.880;2024-02-28T12:01:54;46.08;;;21.48;;
39958;SDS011;25639;53.634;9.880;2024-02-28T12:04:20;47.53;;;21.15;;
39958;SDS011;25639;53.634;9.880;2024-02-28T12:06:46;46.80;;;21.23;;
39958;SDS011;25639;53.634;9.880;2024-02-28T12:09:11;44.20;;;20.35;;
39958;SDS011;25639;53.634;9.880;2024-02-28T12:11:39;47.55;;;21.17;;
39958;SDS011;25639;53.634;9.880;2024-02-28T12:14:05;42.90;;;19.38;;
39958;SDS011;25639;53.634;9.880;2024-02-28T12:16:34;43.90;;;19.75;;
39958;SDS011;25639;53.634;9.880;2024-02-28T12:19:02;42.47;;;20.42;;
39958;SDS011;25639;53.634;9.880;2024-02-28T12:21:28;40.35;;;19.83;;
39958;SDS011;25639;53.634;9.880;2024-02-28T12:23:53;40.30;;;19.55;;
39958;SDS011;25639;53.634;9.880;2024-02-28T12:26:19;40.80;;;18.83;;
39958;SDS011;25639;53.634;9.880;2024-02-28T12:28:45;43.35;;;19.27;;
39958;SDS011;25639;53.634;9.880;2024-02-28T12:31:10;41.08;;;18.63;;
39958;SDS011;25639;53.634;9.880;2024-02-28T12:33:37;39.58;;;19.02;;
39958;SDS011;25639;53.634;9.880;2024-02-28T12:36:02;40.65;;;19.27;;
39958;SDS011;25639;53.634;9.880;2024-02-28T12:38:29;38.72;;;18.00;;
39958;SDS011;25639;53.634;9.880;2024-02-28T12:40:55;37.85;;;17.88;;
39958;SDS011;25639;53.634;9.880;2024-02-28T12:43:20;37.80;;;18.85;;
39958;SDS011;25639;53.634;9.880;2024-02-28T12:45:46;40.58;;;18.30;;
39958;SDS011;25639;53.634;9.880;2024-02-28T12:48:11;37.15;;;18.63;;
39958;SDS011;25639;53.634;9.880;2024-02-28T12:50:36;46.05;;;19.05;;
39958;SDS011;25639;53.634;9.880;2024-02-28T12:53:02;41.70;;;19.25;;
39958;SDS011;25639;53.634;9.880;2024-02-28T12:55:28;40.75;;;19.23;;
39958;SDS011;25639;53.634;9.880;2024-02-28T12:57:53;38.00;;;18.15;;
39958;SDS011;25639;53.634;9.880;2024-02-28T13:00:19;34.38;;;17.00;;
39958;SDS011;25639;53.634;9.880;2024-02-28T13:02:44;34.00;;;17.65;;
39958;SDS011;25639;53.634;9.880;2024-02-28T13:05:11;36.13;;;17.02;;
39958;SDS011;25639;53.634;9.880;2024-02-28T13:07:37;39.88;;;18.23;;
39958;SDS011;25639;53.634;9.880;2024-02-28T13:10:03;37.95;;;18.15;;
39958;SDS011;25639;53.634;9.880;2024-02-28T13:12:30;39.00;;;17.40;;
39958;SDS011;25639;53.634;9.880;2024-02-28T13:14:55;36.30;;;17.23;;
39958;SDS011;25639;53.634;9.880;2024-02-28T13:17:21;39.78;;;17.40;;
39958;SDS011;25639;53.634;9.880;2024-02-28T13:19:46;38.60;;;18.23;;
39958;SDS011;25639;53.634;9.880;2024-02-28T13:22:12;46.80;;;19.00;;
39958;SDS011;25639;53.634;9.880;2024-02-28T13:24:37;43.13;;;18.55;;
39958;SDS011;25639;53.634;9.880;2024-02-28T13:27:02;43.85;;;18.90;;
39958;SDS011;25639;53.634;9.880;2024-02-28T13:29:28;41.58;;;18.88;;
39958;SDS011;25639;53.634;9.880;2024-02-28T13:31:53;42.67;;;19.65;;
39958;SDS011;25639;53.634;9.880;2024-02-28T13:34:18;45.95;;;19.13;;
39958;SDS011;25639;53.634;9.880;2024-02-28T13:36:44;42.45;;;18.70;;
39958;SDS011;25639;53.634;9.880;2024-02-28T13:39:09;42.53;;;18.90;;
39958;SDS011;25639;53.634;9.880;2024-02-28T13:41:36;44.47;;;19.45;;
39958;SDS011;25639;53.634;9.880;2024-02-28T13:44:02;45.10;;;18.92;;
39958;SDS011;25639;53.634;9.880;2024-02-28T13:46:27;43.72;;;19.55;;
39958;SDS011;25639;53.634;9.880;2024-02-28T13:48:53;42.42;;;18.75;;
39958;SDS011;25639;53.634;9.880;2024-02-28T13:51:18;44.33;;;18.60;;
39958;SDS011;25639;53.634;9.880;2024-02-28T13:53:44;43.38;;;19.92;;
39958;SDS011;25639;53.634;9.880;2024-02-28T13:56:09;43.15;;;17.85;;
39958;SDS011;25639;53.634;9.880;2024-02-28T13:58:34;46.28;;;17.85;;
39958;SDS011;25639;53.634;9.880;2024-02-28T14:00:59;43.70;;;18.25;;
39958;SDS011;25639;53.634;9.880;2024-02-28T14:03:25;49.97;;;20.67;;
39958;SDS011;25639;53.634;9.880;2024-02-28T14:05:50;41.88;;;19.05;;
39958;SDS011;25639;53.634;9.880;2024-02-28T14:08:16;42.70;;;18.38;;
39958;SDS011;25639;53.634;9.880;2024-02-28T14:10:42;42.22;;;18.45;;
39958;SDS011;25639;53.634;9.880;2024-02-28T14:13:07;45.40;;;19.50;;